sensor_id;sensor_type;location;lat;lon;timestamp;P1;durP1;ratioP1;P2;durP2;ratioP2
40971;SDS011;26701;47.408;19.174;2023-04-06T00:02:13;19.90;;;10.07;;
40971;SDS011;26701;47.408;19.174;2023-04-06T00:04:39;16.77;;;7.88;;
40971;SDS011;26701;47.408;19.174;2023-04-06T00:07:05;13.60;;;7.60;;
40971;SDS011;26701;47.408;19.174;2023-04-06T00:09:32;18.13;;;8.13;;
40971;SDS011;26701;47.408;19.174;2023-04-06T00:11:58;18.00;;;9.15;;
40971;SDS011;26701;47.408;19.174;2023-04-06T00:14:25;20.63;;;9.45;;
40971;SDS011;26701;47.408;19.174;2023-04-06T00:16:51;21.55;;;9.48;;
40971;SDS011;26701;47.408;19.174;2023-04-06T00:19:17;22.70;;;10.07;;
40971;SDS011;26701;47.408;19.174;2023-04-06T00:21:43;18.73;;;9.40;;
40971;SDS011;26701;47.408;19.174;2023-04-06T00:24:09;20.42;;;10.73;;
40971;SDS011;26701;47.408;19.174;2023-04-06T00:26:35;18.45;;;9.15;;
40971;SDS011;26701;47.408;19.174;2023-04-06T00:29:02;18.52;;;8.77;;
40971;SDS011;26701;47.408;19.174;2023-04-06T00:31:28;20.15;;;9.75;;
40971;SDS011;26701;47.408;19.174;2023-04-06T00:33:54;17.83;;;8.55;;
40971;SDS011;26701;47.408;19.174;2023-04-06T00:36:20;17.98;;;8.73;;
40971;SDS011;26701;47.408;19.174;2023-04-06T00:38:46;11.82;;;7.63;;
40971;SDS011;26701;47.408;19.174;2023-04-06T00:41:13;18.02;;;9.63;;
40971;SDS011;26701;47.408;19.174;2023-04-06T00:43:39;19.98;;;11.20;;
40971;SDS011;26701;47.408;19.174;2023-04-06T00:46:05;21.38;;;10.02;;
40971;SDS011;26701;47.408;19.174;2023-04-06T00:48:31;21.33;;;9.82;;
40971;SDS011;26701;47.408;19.174;2023-04-06T00:50:58;21.48;;;9.45;;
40971;SDS011;26701;47.408;19.174;2023-04-06T00:53:25;19.70;;;9.10;;
40971;SDS011;26701;47.408;19.174;2023-04-06T00:55:52;17.67;;;8.85;;
40971;SDS011;26701;47.408;19.174;2023-04-06T00:58:19;18.70;;;9.65;;
40971;SDS011;26701;47.408;19.174;2023-04-06T01:00:50;19.27;;;9.25;;
40971;SDS011;26701;47.408;19.174;2023-04-06T01:03:20;22.27;;;8.20;;
40971;SDS011;26701;47.408;19.174;2023-04-06T01:05:46;17.52;;;9.50;;
40971;SDS011;26701;47.408;19.174;2023-04-06T01:08:23;21.08;;;9.02;;
40971;SDS011;26701;47.408;19.174;2023-04-06T01:10:54;24.70;;;10.45;;
40971;SDS011;26701;47.408;19.174;2023-04-06T01:13:27;16.52;;;9.60;;
40971;SDS011;26701;47.408;19.174;2023-04-06T01:15:57;23.35;;;10.93;;
40971;SDS011;26701;47.408;19.174;2023-04-06T01:18:49;23.40;;;11.35;;
40971;SDS011;26701;47.408;19.174;2023-04-06T01:21:20;18.90;;;9.65;;
40971;SDS011;26701;47.408;19.174;2023-04-06T01:24:05;23.20;;;11.02;;
40971;SDS011;26701;47.408;19.174;2023-04-06T01:26:44;21.40;;;10.05;;
40971;SDS011;26701;47.408;19.174;2023-04-06T01:29:11;21.92;;;11.57;;
40971;SDS011;26701;47.408;19.174;2023-04-06T01:31:37;17.27;;;11.05;;
40971;SDS011;26701;47.408;19.174;2023-04-06T01:34:04;19.83;;;10.48;;
40971;SDS011;26701;47.408;19.174;2023-04-06T01:36:31;20.02;;;9.63;;
40971;SDS011;26701;47.408;19.174;2023-04-06T01:39:14;15.05;;;9.35;;
40971;SDS011;26701;47.408;19.174;2023-04-06T01:41:40;20.23;;;10.88;;
40971;SDS011;26701;47.408;19.174;2023-04-06T01:44:07;17.45;;;9.77;;
40971;SDS011;26701;47.408;19.174;2023-04-06T01:46:34;19.00;;;11.73;;
40971;SDS011;26701;47.408;19.174;2023-04-06T01:49:03;19.42;;;10.00;;
40971;SDS011;26701;47.408;19.174;2023-04-06T01:51:33;17.77;;;8.43;;
40971;SDS011;26701;47.408;19.174;2023-04-06T01:54:01;19.70;;;9.10;;
40971;SDS011;26701;47.408;19.174;2023-04-06T01:56:51;16.67;;;9.05;;
40971;SDS011;26701;47.408;19.174;2023-04-06T01:59:39;20.58;;;8.52;;
40971;SDS011;26701;47.408;19.174;2023-04-06T02:02:14;14.55;;;8.23;;
40971;SDS011;26701;47.408;19.174;2023-04-06T02:04:49;20.63;;;8.75;;
40971;SDS011;26701;47.408;19.174;2023-04-06T02:07:15;21.17;;;9.07;;
40971;SDS011;26701;47.408;19.174;2023-04-06T02:09:42;16.20;;;8.50;;
40971;SDS011;26701;47.408;19.174;2023-04-06T02:12:15;18.02;;;9.05;;
40971;SDS011;26701;47.408;19.174;2023-04-06T02:14:41;17.55;;;8.85;;
40971;SDS011;26701;47.408;19.174;2023-04-06T02:17:08;16.58;;;9.15;;
40971;SDS011;26701;47.408;19.174;2023-04-06T02:19:34;17.85;;;9.10;;
40971;SDS011;26701;47.408;19.174;2023-04-06T02:22:01;15.05;;;7.78;;
40971;SDS011;26701;47.408;19.174;2023-04-06T02:24:27;18.38;;;8.65;;
40971;SDS011;26701;47.408;19.174;2023-04-06T02:26:53;17.75;;;8.85;;
40971;SDS011;26701;47.408;19.174;2023-04-06T02:29:19;19.52;;;8.80;;
40971;SDS011;26701;47.408;19.174;2023-04-06T02:31:46;19.30;;;8.02;;
40971;SDS011;26701;47.408;19.174;2023-04-06T02:34:12;17.75;;;8.77;;
40971;SDS011;26701;47.408;19.174;2023-04-06T02:36:45;19.80;;;8.82;;
40971;SDS011;26701;47.408;19.174;2023-04-06T02:39:12;20.05;;;9.50;;
40971;SDS011;26701;47.408;19.174;2023-04-06T02:41:40;21.30;;;8.07;;
40971;SDS011;26701;47.408;19.174;2023-04-06T02:44:09;22.73;;;9.20;;
40971;SDS011;26701;47.408;19.174;2023-04-06T02:46:43;18.63;;;10.10;;
40971;SDS011;26701;47.408;19.174;2023-04-06T02:49:09;16.17;;;9.13;;
40971;SDS011;26701;47.408;19.174;2023-04-06T02:51:36;19.80;;;9.10;;
40971;SDS011;26701;47.408;19.174;2023-04-06T02:54:17;15.85;;;8.48;;
40971;SDS011;26701;47.408;19.174;2023-04-06T02:56:43;16.55;;;8.73;;
40971;SDS011;26701;47.408;19.174;2023-04-06T02:59:10;24.50;;;10.10;;
40971;SDS011;26701;47.408;19.174;2023-04-06T03:01:37;25.65;;;11.05;;
40971;SDS011;26701;47.408;19.174;2023-04-06T03:04:05;19.42;;;8.48;;
40971;SDS011;26701;47.408;19.174;2023-04-06T03:06:31;18.83;;;8.95;;
40971;SDS011;26701;47.408;19.174;2023-04-06T03:09:05;22.23;;;9.15;;
40971;SDS011;26701;47.408;19.174;2023-04-06T03:11:32;16.33;;;8.52;;
40971;SDS011;26701;47.408;19.174;2023-04-06T03:13:58;19.63;;;8.57;;
40971;SDS011;26701;47.408;19.174;2023-04-06T03:16:24;23.05;;;10.18;;
40971;SDS011;26701;47.408;19.174;2023-04-06T03:18:50;18.65;;;9.30;;
40971;SDS011;26701;47.408;19.174;2023-04-06T03:21:17;16.90;;;9.57;;
40971;SDS011;26701;47.408;19.174;2023-04-06T03:23:50;24.45;;;9.82;;
40971;SDS011;26701;47.408;19.174;2023-04-06T03:26:16;18.98;;;8.80;;
40971;SDS011;26701;47.408;19.174;2023-04-06T03:28:43;22.60;;;11.55;;
40971;SDS011;26701;47.408;19.174;2023-04-06T03:31:09;29.83;;;10.13;;
40971;SDS011;26701;47.408;19.174;2023-04-06T03:33:42;19.60;;;9.40;;
40971;SDS011;26701;47.408;19.174;2023-04-06T03:36:13;15.90;;;9.05;;
40971;SDS011;26701;47.408;19.174;2023-04-06T03:38:42;20.33;;;8.70;;
40971;SDS011;26701;47.408;19.174;2023-04-06T03:43:39;16.58;;;8.30;;
40971;SDS011;26701;47.408;19.174;2023-04-06T03:46:05;23.50;;;10.80;;
40971;SDS011;26701;47.408;19.174;2023-04-06T03:48:32;17.58;;;9.13;;
40971;SDS011;26701;47.408;19.174;2023-04-06T03:51:02;28.10;;;9.07;;
40971;SDS011;26701;47.408;19.174;2023-04-06T03:53:28;24.73;;;10.90;;
40971;SDS011;26701;47.408;19.174;2023-04-06T03:55:54;19.42;;;9.75;;
40971;SDS011;26701;47.408;19.174;2023-04-06T03:58:20;24.95;;;11.82;;
40971;SDS011;26701;47.408;19.174;2023-04-06T04:00:47;22.27;;;10.35;;
40971;SDS011;26701;47.408;19.174;2023-04-06T04:03:13;31.13;;;12.18;;
40971;SDS011;26701;47.408;19.174;2023-04-06T04:05:41;26.48;;;10.93;;
40971;SDS011;26701;47.408;19.174;2023-04-06T04:08:08;23.10;;;10.20;;
40971;SDS011;26701;47.408;19.174;2023-04-06T04:10:34;23.65;;;9.80;;
40971;SDS011;26701;47.408;19.174;2023-04-06T04:13:00;23.73;;;9.32;;
40971;SDS011;26701;47.408;19.174;2023-04-06T04:15:27;18.65;;;11.10;;
40971;SDS011;26701;47.408;19.174;2023-04-06T04:17:53;20.33;;;10.23;;
40971;SDS011;26701;47.408;19.174;2023-04-06T04:20:19;20.70;;;10.25;;
40971;SDS011;26701;47.408;19.174;2023-04-06T04:22:45;24.17;;;10.02;;
40971;SDS011;26701;47.408;19.174;2023-04-06T04:25:11;19.05;;;9.55;;
40971;SDS011;26701;47.408;19.174;2023-04-06T04:27:43;25.73;;;11.13;;
40971;SDS011;26701;47.408;19.174;2023-04-06T04:30:10;27.00;;;11.52;;
40971;SDS011;26701;47.408;19.174;2023-04-06T04:32:36;22.85;;;9.88;;
40971;SDS011;26701;47.408;19.174;2023-04-06T04:35:05;23.02;;;10.48;;
40971;SDS011;26701;47.408;19.174;2023-04-06T04:37:40;19.98;;;9.32;;
40971;SDS011;26701;47.408;19.174;2023-04-06T04:40:08;16.40;;;8.75;;
40971;SDS011;26701;47.408;19.174;2023-04-06T04:42:44;24.67;;;10.77;;
40971;SDS011;26701;47.408;19.174;2023-04-06T04:45:17;20.05;;;9.60;;
40971;SDS011;26701;47.408;19.174;2023-04-06T04:47:44;24.65;;;10.05;;
40971;SDS011;26701;47.408;19.174;2023-04-06T04:50:12;21.40;;;10.20;;
40971;SDS011;26701;47.408;19.174;2023-04-06T04:52:42;20.65;;;9.48;;
40971;SDS011;26701;47.408;19.174;2023-04-06T04:55:18;26.00;;;10.43;;
40971;SDS011;26701;47.408;19.174;2023-04-06T04:57:48;26.50;;;10.75;;
40971;SDS011;26701;47.408;19.174;2023-04-06T05:00:16;25.05;;;11.27;;
40971;SDS011;26701;47.408;19.174;2023-04-06T05:02:44;24.30;;;10.70;;
40971;SDS011;26701;47.408;19.174;2023-04-06T05:05:24;17.77;;;10.15;;
40971;SDS011;26701;47.408;19.174;2023-04-06T05:07:50;25.80;;;11.35;;
40971;SDS011;26701;47.408;19.174;2023-04-06T05:10:26;22.13;;;9.13;;
40971;SDS011;26701;47.408;19.174;2023-04-06T05:12:57;28.67;;;11.10;;
40971;SDS011;26701;47.408;19.174;2023-04-06T05:15:24;25.80;;;12.60;;
40971;SDS011;26701;47.408;19.174;2023-04-06T05:17:55;23.83;;;10.55;;
40971;SDS011;26701;47.408;19.174;2023-04-06T05:20:28;19.08;;;9.57;;
40971;SDS011;26701;47.408;19.174;2023-04-06T05:22:55;27.00;;;12.60;;
40971;SDS011;26701;47.408;19.174;2023-04-06T05:25:21;26.05;;;10.95;;
40971;SDS011;26701;47.408;19.174;2023-04-06T05:27:50;30.92;;;13.57;;
40971;SDS011;26701;47.408;19.174;2023-04-06T05:30:29;27.27;;;11.98;;
40971;SDS011;26701;47.408;19.174;2023-04-06T05:32:56;24.45;;;12.02;;
40971;SDS011;26701;47.408;19.174;2023-04-06T05:35:26;28.60;;;11.50;;
40971;SDS011;26701;47.408;19.174;2023-04-06T05:37:56;35.97;;;13.23;;
40971;SDS011;26701;47.408;19.174;2023-04-06T05:40:24;22.92;;;12.63;;
40971;SDS011;26701;47.408;19.174;2023-04-06T05:42:51;26.75;;;13.00;;
40971;SDS011;26701;47.408;19.174;2023-04-06T05:45:19;29.83;;;13.43;;
40971;SDS011;26701;47.408;19.174;2023-04-06T05:47:51;27.33;;;12.90;;
40971;SDS011;26701;47.408;19.174;2023-04-06T05:50:24;41.13;;;13.00;;
40971;SDS011;26701;47.408;19.174;2023-04-06T05:52:50;26.13;;;11.35;;
40971;SDS011;26701;47.408;19.174;2023-04-06T05:55:20;32.08;;;13.30;;
40971;SDS011;26701;47.408;19.174;2023-04-06T05:57:53;18.70;;;9.15;;
40971;SDS011;26701;47.408;19.174;2023-04-06T06:00:20;27.73;;;12.25;;
40971;SDS011;26701;47.408;19.174;2023-04-06T06:02:56;27.77;;;12.88;;
40971;SDS011;26701;47.408;19.174;2023-04-06T06:05:26;27.58;;;11.50;;
40971;SDS011;26701;47.408;19.174;2023-04-06T06:07:53;23.80;;;12.90;;
40971;SDS011;26701;47.408;19.174;2023-04-06T06:10:20;20.15;;;11.13;;
40971;SDS011;26701;47.408;19.174;2023-04-06T06:12:46;20.33;;;10.32;;
40971;SDS011;26701;47.408;19.174;2023-04-06T06:15:12;23.50;;;10.48;;
40971;SDS011;26701;47.408;19.174;2023-04-06T06:17:43;19.88;;;8.90;;
40971;SDS011;26701;47.408;19.174;2023-04-06T06:20:10;23.20;;;11.25;;
40971;SDS011;26701;47.408;19.174;2023-04-06T06:22:36;34.53;;;12.60;;
40971;SDS011;26701;47.408;19.174;2023-04-06T06:25:02;25.70;;;10.10;;
40971;SDS011;26701;47.408;19.174;2023-04-06T06:27:29;19.45;;;9.93;;
40971;SDS011;26701;47.408;19.174;2023-04-06T06:29:55;20.45;;;9.73;;
40971;SDS011;26701;47.408;19.174;2023-04-06T06:32:22;18.60;;;9.45;;
40971;SDS011;26701;47.408;19.174;2023-04-06T06:34:51;29.02;;;13.57;;
40971;SDS011;26701;47.408;19.174;2023-04-06T06:37:18;23.05;;;11.75;;
40971;SDS011;26701;47.408;19.174;2023-04-06T06:39:44;23.60;;;11.73;;
40971;SDS011;26701;47.408;19.174;2023-04-06T06:42:10;22.38;;;11.65;;
40971;SDS011;26701;47.408;19.174;2023-04-06T06:45:04;28.25;;;12.60;;
40971;SDS011;26701;47.408;19.174;2023-04-06T06:47:30;24.95;;;12.30;;
40971;SDS011;26701;47.408;19.174;2023-04-06T06:49:56;21.38;;;11.60;;
40971;SDS011;26701;47.408;19.174;2023-04-06T06:52:23;18.90;;;10.48;;
40971;SDS011;26701;47.408;19.174;2023-04-06T06:54:49;21.90;;;11.13;;
40971;SDS011;26701;47.408;19.174;2023-04-06T06:57:18;22.13;;;10.70;;
40971;SDS011;26701;47.408;19.174;2023-04-06T06:59:45;28.70;;;12.05;;
40971;SDS011;26701;47.408;19.174;2023-04-06T07:02:11;19.42;;;10.13;;
40971;SDS011;26701;47.408;19.174;2023-04-06T07:04:38;26.35;;;12.13;;
40971;SDS011;26701;47.408;19.174;2023-04-06T07:07:04;23.02;;;10.95;;
40971;SDS011;26701;47.408;19.174;2023-04-06T07:09:30;35.55;;;12.55;;
40971;SDS011;26701;47.408;19.174;2023-04-06T07:11:56;23.63;;;10.77;;
40971;SDS011;26701;47.408;19.174;2023-04-06T07:14:23;19.63;;;10.60;;
40971;SDS011;26701;47.408;19.174;2023-04-06T07:16:50;25.20;;;12.38;;
40971;SDS011;26701;47.408;19.174;2023-04-06T07:19:16;20.90;;;10.88;;
40971;SDS011;26701;47.408;19.174;2023-04-06T07:21:43;22.42;;;11.52;;
40971;SDS011;26701;47.408;19.174;2023-04-06T07:24:10;21.35;;;11.32;;
40971;SDS011;26701;47.408;19.174;2023-04-06T07:26:36;23.25;;;10.57;;
40971;SDS011;26701;47.408;19.174;2023-04-06T07:29:03;31.35;;;12.95;;
40971;SDS011;26701;47.408;19.174;2023-04-06T07:31:29;26.88;;;12.25;;
40971;SDS011;26701;47.408;19.174;2023-04-06T07:33:56;16.35;;;10.05;;
40971;SDS011;26701;47.408;19.174;2023-04-06T07:36:22;17.48;;;9.75;;
40971;SDS011;26701;47.408;19.174;2023-04-06T07:38:48;16.75;;;9.65;;
40971;SDS011;26701;47.408;19.174;2023-04-06T07:41:16;18.58;;;10.70;;
40971;SDS011;26701;47.408;19.174;2023-04-06T07:43:42;19.13;;;9.93;;
40971;SDS011;26701;47.408;19.174;2023-04-06T07:46:08;21.35;;;8.82;;
40971;SDS011;26701;47.408;19.174;2023-04-06T07:48:35;27.58;;;9.88;;
40971;SDS011;26701;47.408;19.174;2023-04-06T07:51:04;19.23;;;8.45;;
40971;SDS011;26701;47.408;19.174;2023-04-06T07:53:34;20.05;;;9.98;;
40971;SDS011;26701;47.408;19.174;2023-04-06T07:56:00;15.35;;;8.52;;
40971;SDS011;26701;47.408;19.174;2023-04-06T07:58:27;15.35;;;8.43;;
40971;SDS011;26701;47.408;19.174;2023-04-06T08:00:53;17.88;;;9.38;;
40971;SDS011;26701;47.408;19.174;2023-04-06T08:03:20;17.33;;;9.32;;
40971;SDS011;26701;47.408;19.174;2023-04-06T08:05:50;20.92;;;9.95;;
40971;SDS011;26701;47.408;19.174;2023-04-06T08:08:16;18.50;;;9.52;;
40971;SDS011;26701;47.408;19.174;2023-04-06T08:10:42;14.35;;;8.63;;
40971;SDS011;26701;47.408;19.174;2023-04-06T08:13:08;20.05;;;9.68;;
40971;SDS011;26701;47.408;19.174;2023-04-06T08:15:35;20.02;;;8.93;;
40971;SDS011;26701;47.408;19.174;2023-04-06T08:18:01;18.80;;;8.85;;
40971;SDS011;26701;47.408;19.174;2023-04-06T08:20:27;21.73;;;9.80;;
40971;SDS011;26701;47.408;19.174;2023-04-06T08:22:53;17.60;;;9.30;;
40971;SDS011;26701;47.408;19.174;2023-04-06T08:25:20;19.33;;;8.68;;
40971;SDS011;26701;47.408;19.174;2023-04-06T08:27:46;19.15;;;9.15;;
40971;SDS011;26701;47.408;19.174;2023-04-06T08:30:13;15.88;;;9.50;;
40971;SDS011;26701;47.408;19.174;2023-04-06T08:32:44;23.55;;;10.38;;
40971;SDS011;26701;47.408;19.174;2023-04-06T08:35:11;18.55;;;9.05;;
40971;SDS011;26701;47.408;19.174;2023-04-06T08:37:38;17.05;;;10.85;;
40971;SDS011;26701;47.408;19.174;2023-04-06T08:40:04;16.73;;;9.48;;
40971;SDS011;26701;47.408;19.174;2023-04-06T08:42:33;18.52;;;10.48;;
40971;SDS011;26701;47.408;19.174;2023-04-06T08:45:06;19.90;;;9.68;;
40971;SDS011;26701;47.408;19.174;2023-04-06T08:47:32;16.02;;;8.57;;
40971;SDS011;26701;47.408;19.174;2023-04-06T08:50:00;15.35;;;9.13;;
40971;SDS011;26701;47.408;19.174;2023-04-06T08:52:28;14.82;;;8.30;;
40971;SDS011;26701;47.408;19.174;2023-04-06T08:54:56;17.33;;;8.90;;
40971;SDS011;26701;47.408;19.174;2023-04-06T08:57:22;17.85;;;9.38;;
40971;SDS011;26701;47.408;19.174;2023-04-06T08:59:50;13.80;;;8.48;;
40971;SDS011;26701;47.408;19.174;2023-04-06T09:02:17;16.60;;;9.02;;
40971;SDS011;26701;47.408;19.174;2023-04-06T09:04:47;17.45;;;9.57;;
40971;SDS011;26701;47.408;19.174;2023-04-06T09:07:17;16.30;;;8.70;;
40971;SDS011;26701;47.408;19.174;2023-04-06T09:09:43;21.90;;;9.00;;
40971;SDS011;26701;47.408;19.174;2023-04-06T09:14:51;17.42;;;10.55;;
40971;SDS011;26701;47.408;19.174;2023-04-06T09:17:24;17.38;;;10.48;;
40971;SDS011;26701;47.408;19.174;2023-04-06T09:19:50;17.65;;;9.20;;
40971;SDS011;26701;47.408;19.174;2023-04-06T09:22:17;18.58;;;10.27;;
40971;SDS011;26701;47.408;19.174;2023-04-06T09:24:44;17.73;;;9.18;;
40971;SDS011;26701;47.408;19.174;2023-04-06T09:27:10;18.80;;;10.35;;
40971;SDS011;26701;47.408;19.174;2023-04-06T09:29:36;21.88;;;11.60;;
40971;SDS011;26701;47.408;19.174;2023-04-06T09:32:03;18.83;;;9.50;;
40971;SDS011;26701;47.408;19.174;2023-04-06T09:34:29;19.75;;;9.13;;
40971;SDS011;26701;47.408;19.174;2023-04-06T09:36:55;23.60;;;11.63;;
40971;SDS011;26701;47.408;19.174;2023-04-06T09:39:22;26.92;;;10.77;;
40971;SDS011;26701;47.408;19.174;2023-04-06T09:41:49;18.95;;;9.57;;
40971;SDS011;26701;47.408;19.174;2023-04-06T09:44:16;16.23;;;10.65;;
40971;SDS011;26701;47.408;19.174;2023-04-06T09:46:42;11.43;;;8.02;;
40971;SDS011;26701;47.408;19.174;2023-04-06T09:49:09;15.75;;;9.65;;
40971;SDS011;26701;47.408;19.174;2023-04-06T09:54:02;18.42;;;8.55;;
40971;SDS011;26701;47.408;19.174;2023-04-06T10:02:08;14.98;;;8.48;;
40971;SDS011;26701;47.408;19.174;2023-04-06T10:07:49;15.80;;;8.43;;
40971;SDS011;26701;47.408;19.174;2023-04-06T10:10:16;12.35;;;7.80;;
40971;SDS011;26701;47.408;19.174;2023-04-06T10:12:43;14.23;;;8.38;;
40971;SDS011;26701;47.408;19.174;2023-04-06T10:15:10;16.20;;;9.40;;
40971;SDS011;26701;47.408;19.174;2023-04-06T10:17:36;15.68;;;8.73;;
40971;SDS011;26701;47.408;19.174;2023-04-06T10:20:13;15.52;;;9.23;;
40971;SDS011;26701;47.408;19.174;2023-04-06T10:22:45;14.82;;;8.50;;
40971;SDS011;26701;47.408;19.174;2023-04-06T10:25:29;18.92;;;10.50;;
40971;SDS011;26701;47.408;19.174;2023-04-06T10:27:59;20.92;;;10.85;;
40971;SDS011;26701;47.408;19.174;2023-04-06T10:30:25;14.18;;;9.25;;
40971;SDS011;26701;47.408;19.174;2023-04-06T10:32:52;16.55;;;8.52;;
40971;SDS011;26701;47.408;19.174;2023-04-06T10:35:18;18.50;;;9.07;;
40971;SDS011;26701;47.408;19.174;2023-04-06T10:38:01;16.15;;;9.00;;
40971;SDS011;26701;47.408;19.174;2023-04-06T10:40:27;16.52;;;8.45;;
40971;SDS011;26701;47.408;19.174;2023-04-06T10:42:54;13.65;;;8.35;;
40971;SDS011;26701;47.408;19.174;2023-04-06T10:47:46;17.10;;;9.05;;
40971;SDS011;26701;47.408;19.174;2023-04-06T10:50:16;13.63;;;8.65;;
40971;SDS011;26701;47.408;19.174;2023-04-06T10:52:45;14.20;;;8.95;;
40971;SDS011;26701;47.408;19.174;2023-04-06T10:55:12;17.48;;;9.25;;
40971;SDS011;26701;47.408;19.174;2023-04-06T10:57:40;17.97;;;9.40;;
40971;SDS011;26701;47.408;19.174;2023-04-06T11:00:06;17.52;;;9.52;;
40971;SDS011;26701;47.408;19.174;2023-04-06T11:02:36;17.55;;;9.05;;
40971;SDS011;26701;47.408;19.174;2023-04-06T11:05:05;13.95;;;9.35;;
40971;SDS011;26701;47.408;19.174;2023-04-06T11:07:32;14.23;;;7.63;;
40971;SDS011;26701;47.408;19.174;2023-04-06T11:09:58;15.55;;;8.43;;
40971;SDS011;26701;47.408;19.174;2023-04-06T11:12:25;19.58;;;9.15;;
40971;SDS011;26701;47.408;19.174;2023-04-06T11:14:52;12.88;;;8.57;;
40971;SDS011;26701;47.408;19.174;2023-04-06T11:17:24;14.93;;;8.65;;
40971;SDS011;26701;47.408;19.174;2023-04-06T11:19:51;12.68;;;8.38;;
40971;SDS011;26701;47.408;19.174;2023-04-06T11:22:17;15.30;;;8.98;;
40971;SDS011;26701;47.408;19.174;2023-04-06T11:24:43;14.15;;;7.95;;
40971;SDS011;26701;47.408;19.174;2023-04-06T11:27:10;16.33;;;8.55;;
40971;SDS011;26701;47.408;19.174;2023-04-06T11:29:36;11.85;;;7.53;;
40971;SDS011;26701;47.408;19.174;2023-04-06T11:32:03;16.00;;;8.13;;
40971;SDS011;26701;47.408;19.174;2023-04-06T11:34:32;11.57;;;8.23;;
40971;SDS011;26701;47.408;19.174;2023-04-06T11:36:59;26.02;;;13.77;;
40971;SDS011;26701;47.408;19.174;2023-04-06T11:39:27;16.75;;;8.18;;
40971;SDS011;26701;47.408;19.174;2023-04-06T11:41:58;14.50;;;8.48;;
40971;SDS011;26701;47.408;19.174;2023-04-06T11:44:34;12.20;;;7.68;;
40971;SDS011;26701;47.408;19.174;2023-04-06T11:47:01;11.82;;;7.80;;
40971;SDS011;26701;47.408;19.174;2023-04-06T11:49:27;11.15;;;7.65;;
40971;SDS011;26701;47.408;19.174;2023-04-06T11:51:54;12.88;;;7.63;;
40971;SDS011;26701;47.408;19.174;2023-04-06T11:54:33;12.77;;;7.28;;
40971;SDS011;26701;47.408;19.174;2023-04-06T11:56:59;13.88;;;8.68;;
40971;SDS011;26701;47.408;19.174;2023-04-06T11:59:26;11.45;;;8.23;;
40971;SDS011;26701;47.408;19.174;2023-04-06T12:01:52;16.40;;;7.80;;
40971;SDS011;26701;47.408;19.174;2023-04-06T12:04:19;15.13;;;9.00;;
40971;SDS011;26701;47.408;19.174;2023-04-06T12:06:45;15.88;;;10.18;;
40971;SDS011;26701;47.408;19.174;2023-04-06T12:09:12;14.57;;;8.10;;
40971;SDS011;26701;47.408;19.174;2023-04-06T12:11:38;14.25;;;7.68;;
40971;SDS011;26701;47.408;19.174;2023-04-06T12:14:04;13.00;;;7.55;;
40971;SDS011;26701;47.408;19.174;2023-04-06T12:16:32;16.73;;;8.23;;
40971;SDS011;26701;47.408;19.174;2023-04-06T12:18:59;14.10;;;7.35;;
40971;SDS011;26701;47.408;19.174;2023-04-06T12:21:29;13.40;;;7.80;;
40971;SDS011;26701;47.408;19.174;2023-04-06T12:23:59;15.57;;;8.20;;
40971;SDS011;26701;47.408;19.174;2023-04-06T12:26:26;16.27;;;7.63;;
40971;SDS011;26701;47.408;19.174;2023-04-06T12:28:52;15.68;;;7.78;;
40971;SDS011;26701;47.408;19.174;2023-04-06T12:31:19;11.25;;;6.78;;
40971;SDS011;26701;47.408;19.174;2023-04-06T12:33:46;11.90;;;7.53;;
40971;SDS011;26701;47.408;19.174;2023-04-06T12:36:13;13.15;;;7.80;;
40971;SDS011;26701;47.408;19.174;2023-04-06T12:38:41;14.68;;;7.78;;
40971;SDS011;26701;47.408;19.174;2023-04-06T12:43:35;13.48;;;7.43;;
40971;SDS011;26701;47.408;19.174;2023-04-06T12:46:01;10.85;;;6.53;;
40971;SDS011;26701;47.408;19.174;2023-04-06T12:48:27;11.57;;;7.18;;
40971;SDS011;26701;47.408;19.174;2023-04-06T12:50:54;16.65;;;7.38;;
40971;SDS011;26701;47.408;19.174;2023-04-06T12:53:21;13.07;;;7.82;;
40971;SDS011;26701;47.408;19.174;2023-04-06T12:55:47;15.63;;;7.88;;
40971;SDS011;26701;47.408;19.174;2023-04-06T12:58:13;11.88;;;7.25;;
40971;SDS011;26701;47.408;19.174;2023-04-06T13:00:40;12.13;;;7.47;;
40971;SDS011;26701;47.408;19.174;2023-04-06T13:03:06;11.88;;;7.97;;
40971;SDS011;26701;47.408;19.174;2023-04-06T13:05:32;15.75;;;7.65;;
40971;SDS011;26701;47.408;19.174;2023-04-06T13:07:58;12.50;;;7.20;;
40971;SDS011;26701;47.408;19.174;2023-04-06T13:10:25;19.08;;;8.00;;
40971;SDS011;26701;47.408;19.174;2023-04-06T13:12:51;12.35;;;6.57;;
40971;SDS011;26701;47.408;19.174;2023-04-06T13:15:17;12.50;;;7.47;;
40971;SDS011;26701;47.408;19.174;2023-04-06T13:17:44;12.73;;;7.18;;
40971;SDS011;26701;47.408;19.174;2023-04-06T13:20:10;15.90;;;7.57;;
40971;SDS011;26701;47.408;19.174;2023-04-06T13:22:36;9.75;;;6.63;;
40971;SDS011;26701;47.408;19.174;2023-04-06T13:25:02;12.52;;;7.70;;
40971;SDS011;26701;47.408;19.174;2023-04-06T13:27:29;22.85;;;8.30;;
40971;SDS011;26701;47.408;19.174;2023-04-06T13:29:58;11.77;;;7.95;;
40971;SDS011;26701;47.408;19.174;2023-04-06T13:32:25;12.50;;;7.32;;
40971;SDS011;26701;47.408;19.174;2023-04-06T13:34:54;13.15;;;7.90;;
40971;SDS011;26701;47.408;19.174;2023-04-06T13:37:20;12.90;;;7.80;;
40971;SDS011;26701;47.408;19.174;2023-04-06T13:39:46;11.30;;;7.22;;
40971;SDS011;26701;47.408;19.174;2023-04-06T13:42:12;13.55;;;8.25;;
40971;SDS011;26701;47.408;19.174;2023-04-06T13:44:38;14.20;;;8.05;;
40971;SDS011;26701;47.408;19.174;2023-04-06T13:47:05;14.70;;;7.05;;
40971;SDS011;26701;47.408;19.174;2023-04-06T13:49:31;11.88;;;7.30;;
40971;SDS011;26701;47.408;19.174;2023-04-06T13:51:57;16.25;;;7.90;;
40971;SDS011;26701;47.408;19.174;2023-04-06T13:54:23;12.05;;;7.75;;
40971;SDS011;26701;47.408;19.174;2023-04-06T13:56:52;14.32;;;7.30;;
40971;SDS011;26701;47.408;19.174;2023-04-06T13:59:18;12.23;;;7.07;;
40971;SDS011;26701;47.408;19.174;2023-04-06T14:01:44;11.90;;;6.45;;
40971;SDS011;26701;47.408;19.174;2023-04-06T14:04:10;20.55;;;8.25;;
40971;SDS011;26701;47.408;19.174;2023-04-06T14:06:37;17.27;;;7.47;;
40971;SDS011;26701;47.408;19.174;2023-04-06T14:09:03;12.70;;;7.53;;
40971;SDS011;26701;47.408;19.174;2023-04-06T14:11:29;10.70;;;7.30;;
40971;SDS011;26701;47.408;19.174;2023-04-06T14:13:56;15.20;;;7.15;;
40971;SDS011;26701;47.408;19.174;2023-04-06T14:16:23;13.70;;;6.68;;
40971;SDS011;26701;47.408;19.174;2023-04-06T14:18:49;11.32;;;6.50;;
40971;SDS011;26701;47.408;19.174;2023-04-06T14:21:16;10.75;;;6.13;;
40971;SDS011;26701;47.408;19.174;2023-04-06T14:23:43;16.35;;;7.30;;
40971;SDS011;26701;47.408;19.174;2023-04-06T14:26:09;12.65;;;6.38;;
40971;SDS011;26701;47.408;19.174;2023-04-06T14:28:36;12.93;;;6.47;;
40971;SDS011;26701;47.408;19.174;2023-04-06T14:31:10;12.80;;;6.43;;
40971;SDS011;26701;47.408;19.174;2023-04-06T14:33:38;13.75;;;6.88;;
40971;SDS011;26701;47.408;19.174;2023-04-06T14:36:04;15.75;;;8.35;;
40971;SDS011;26701;47.408;19.174;2023-04-06T14:38:31;12.70;;;5.95;;
40971;SDS011;26701;47.408;19.174;2023-04-06T14:40:57;14.25;;;7.32;;
40971;SDS011;26701;47.408;19.174;2023-04-06T14:43:23;13.68;;;7.22;;
40971;SDS011;26701;47.408;19.174;2023-04-06T14:45:50;19.05;;;7.88;;